createdAt,value
2023-05-15T14:23:46.953Z,50.00
2023-05-15T14:24:46.928Z,50.00
2023-05-15T14:25:46.929Z,50.00
2023-05-15T14:26:46.918Z,50.00
2023-05-15T14:27:46.893Z,50.00
2023-05-15T14:28:46.939Z,0.00
2023-05-15T14:29:46.893Z,0.00
2023-05-15T14:30:46.887Z,0.00
2023-05-15T14:31:46.900Z,0.00
2023-05-15T14:32:46.909Z,0.00
2023-05-15T14:33:46.848Z,0.00
2023-05-15T14:34:46.863Z,0.00
2023-05-15T14:35:46.902Z,0.00
2023-05-15T14:36:46.836Z,0.00
2023-05-15T14:37:46.816Z,0.00
2023-05-15T14:38:46.849Z,0.00
2023-05-15T14:39:46.818Z,0.00
2023-05-15T14:40:46.834Z,0.00
2023-05-15T14:41:46.807Z,0.00
2023-05-15T14:42:46.820Z,0.00
2023-05-15T14:43:46.783Z,0.00
2023-05-15T14:44:46.793Z,0.00
2023-05-15T14:45:46.805Z,0.00
2023-05-15T14:46:46.853Z,0.00
2023-05-15T14:47:46.802Z,0.00
2023-05-15T14:48:46.780Z,0.00
2023-05-15T14:49:46.781Z,0.00
2023-05-15T14:50:46.777Z,0.00
2023-05-15T14:51:46.741Z,0.00
2023-05-15T14:52:46.738Z,0.00
2023-05-15T14:53:46.739Z,0.00
2023-05-15T14:54:56.897Z,0.00
2023-05-15T14:55:47.700Z,0.00
2023-05-15T14:56:46.688Z,0.00
2023-05-15T14:57:46.716Z,0.00
2023-05-15T14:58:46.695Z,0.00
2023-05-15T14:59:46.682Z,0.00
2023-05-15T15:00:46.645Z,0.00
2023-05-15T15:01:46.694Z,0.00
2023-05-15T15:02:46.786Z,0.00
2023-05-15T15:03:47.752Z,0.00
2023-05-15T15:04:46.649Z,0.00
2023-05-15T15:05:46.661Z,0.00
2023-05-15T15:06:46.624Z,0.00
2023-05-15T15:07:46.636Z,0.00
2023-05-15T15:08:46.630Z,0.00
2023-05-15T15:09:46.645Z,0.00
2023-05-15T15:10:47.112Z,0.00
2023-05-15T15:11:46.573Z,0.00
2023-05-15T15:12:46.645Z,0.00
2023-05-15T15:13:46.570Z,0.00
2023-05-15T15:14:46.544Z,0.00
2023-05-15T15:15:46.619Z,0.00
2023-05-15T15:16:46.755Z,0.00
2023-05-15T15:17:46.579Z,0.00
2023-05-15T15:18:46.547Z,0.00
2023-05-15T15:19:46.577Z,0.00
2023-05-15T15:20:46.518Z,0.00
2023-05-15T15:21:46.554Z,0.00
2023-05-15T15:22:46.518Z,0.00
2023-05-15T15:23:46.499Z,0.00
2023-05-15T15:24:46.501Z,0.00
2023-05-15T15:25:46.523Z,0.00
2023-05-15T15:26:46.501Z,0.00
2023-05-15T15:27:46.502Z,4.10
2023-05-15T15:28:46.460Z,22.51
2023-05-15T15:29:46.493Z,48.97
2023-05-15T15:30:46.462Z,50.77
2023-05-15T15:31:46.551Z,51.96
2023-05-15T15:32:46.485Z,51.83
2023-05-15T15:33:46.422Z,50.00
2023-05-15T15:34:46.437Z,50.97
2023-05-15T15:35:46.421Z,53.07
2023-05-15T15:36:46.413Z,50.76
2023-05-15T15:37:46.430Z,50.00
2023-05-15T15:38:46.415Z,50.00
2023-05-15T15:39:46.475Z,50.00
2023-05-15T15:40:46.451Z,51.19
2023-05-15T15:41:46.515Z,50.70
2023-05-15T15:42:46.513Z,52.03
2023-05-15T15:43:46.548Z,50.20
2023-05-15T15:44:46.571Z,52.93
2023-05-15T15:45:46.648Z,50.92
2023-05-15T15:46:46.572Z,51.14
2023-05-15T15:47:46.660Z,50.41
2023-05-15T15:48:46.606Z,50.00
2023-05-15T15:49:46.630Z,50.00
2023-05-15T15:50:46.658Z,50.98
2023-05-15T15:51:46.660Z,52.65
2023-05-15T15:52:46.681Z,50.53
2023-05-15T15:53:46.708Z,50.00
2023-05-15T15:54:46.742Z,51.64
2023-05-15T15:55:47.356Z,52.11
2023-05-15T15:56:46.819Z,53.99
2023-05-15T15:57:46.861Z,51.38
2023-05-15T15:58:46.879Z,50.67
2023-05-15T15:59:46.879Z,51.03
2023-05-15T16:00:46.872Z,50.18
2023-05-15T16:01:47.140Z,50.96
2023-05-15T16:02:46.988Z,50.55
2023-05-15T16:03:46.984Z,51.74
2023-05-15T16:04:46.973Z,51.48
2023-05-15T16:05:46.966Z,51.23
2023-05-15T16:06:46.958Z,53.90
2023-05-15T16:07:47.009Z,51.05
2023-05-15T16:08:47.041Z,51.15
2023-05-15T16:09:51.421Z,51.55
2023-05-15T16:10:48.064Z,51.77
2023-05-15T16:11:47.054Z,52.14
2023-05-15T16:12:46.997Z,53.68
2023-05-15T16:13:47.056Z,54.59
2023-05-15T16:14:47.008Z,57.53
2023-05-15T16:15:47.548Z,55.37
2023-05-15T16:16:47.038Z,56.60
2023-05-15T16:17:47.001Z,53.24
2023-05-15T16:18:47.036Z,52.06
2023-05-15T16:19:46.977Z,54.82
2023-05-15T16:20:46.993Z,52.87
2023-05-15T16:21:46.976Z,53.38
2023-05-15T16:22:46.993Z,52.68
2023-05-15T16:23:46.932Z,53.92
2023-05-15T16:24:46.966Z,51.05
2023-05-15T16:25:46.946Z,52.39
2023-05-15T16:26:46.925Z,50.48
2023-05-15T16:27:46.945Z,52.39
2023-05-15T16:28:46.911Z,49.90
2023-05-15T16:29:46.930Z,52.26
2023-05-15T16:30:49.483Z,53.83
2023-05-15T16:31:47.035Z,50.00
2023-05-15T16:32:47.026Z,52.62
2023-05-15T16:33:46.933Z,52.99
2023-05-15T16:34:46.904Z,52.38
2023-05-15T16:35:46.883Z,50.17
2023-05-15T16:36:46.901Z,51.11
2023-05-15T16:37:46.911Z,50.55
2023-05-15T16:38:46.879Z,53.42
2023-05-15T16:39:46.882Z,53.79
2023-05-15T16:40:46.919Z,54.14
2023-05-15T16:41:47.030Z,51.78
2023-05-15T16:42:46.878Z,51.29
2023-05-15T16:43:46.864Z,52.38
2023-05-15T16:44:46.875Z,51.93
2023-05-15T16:45:46.846Z,51.69
2023-05-15T16:46:46.918Z,50.00
2023-05-15T16:47:46.872Z,54.10
2023-05-15T16:48:46.813Z,56.17
2023-05-15T16:49:49.757Z,61.63
2023-05-15T16:50:46.830Z,61.78
2023-05-15T16:51:46.818Z,62.22
2023-05-15T16:52:46.789Z,62.57
2023-05-15T16:53:46.817Z,63.73
2023-05-15T16:54:46.826Z,66.39
2023-05-15T16:55:46.769Z,65.39
2023-05-15T16:56:46.767Z,66.60
2023-05-15T16:57:46.736Z,70.58
2023-05-15T16:58:46.759Z,71.81
2023-05-15T16:59:46.733Z,76.66
2023-05-15T17:00:46.749Z,75.90
2023-05-15T17:01:46.740Z,81.26
2023-05-15T17:02:46.792Z,79.80
2023-05-15T17:03:46.914Z,79.03
2023-05-15T17:04:46.715Z,78.50
2023-05-15T17:05:47.917Z,77.03
2023-05-15T17:06:46.698Z,77.56
2023-05-15T17:07:46.695Z,79.23
2023-05-15T17:08:46.711Z,80.55
2023-05-15T17:09:46.680Z,77.93
2023-05-15T17:10:46.659Z,77.09
2023-05-15T17:11:46.665Z,75.45
2023-05-15T17:12:46.654Z,79.84
2023-05-15T17:13:46.688Z,78.96
2023-05-15T17:14:46.695Z,77.33
2023-05-15T17:15:46.698Z,75.50
2023-05-15T17:16:46.631Z,73.58
2023-05-15T17:17:46.670Z,75.01
2023-05-15T17:18:46.642Z,78.73
2023-05-15T17:19:46.622Z,70.56
2023-05-15T17:20:46.591Z,62.20
2023-05-15T17:21:46.596Z,62.28
2023-05-15T17:22:46.580Z,62.50
2023-05-15T17:23:46.585Z,60.22
2023-05-15T17:24:51.435Z,57.81
2023-05-15T17:25:47.561Z,56.79
2023-05-15T17:26:46.579Z,52.25
2023-05-15T17:27:46.576Z,46.16
2023-05-15T17:28:46.566Z,37.90
2023-05-15T17:29:46.575Z,33.34
2023-05-15T17:30:46.520Z,47.58
2023-05-15T17:31:46.625Z,48.89
2023-05-15T17:32:46.530Z,52.95
2023-05-15T17:33:47.656Z,52.15
2023-05-15T17:34:46.509Z,50.00
2023-05-15T17:35:46.527Z,50.23
2023-05-15T17:36:46.483Z,50.00
2023-05-15T17:37:46.500Z,50.23
2023-05-15T17:38:46.479Z,50.07
2023-05-15T17:39:46.471Z,50.29
2023-05-15T17:40:46.443Z,55.46
2023-05-15T17:41:46.452Z,51.08
2023-05-15T17:42:46.436Z,51.47
2023-05-15T17:43:46.458Z,50.00
2023-05-15T17:44:46.418Z,50.73
2023-05-15T17:45:46.463Z,50.94
2023-05-15T17:46:46.413Z,50.98
2023-05-15T17:47:46.460Z,50.00
2023-05-15T17:48:46.407Z,50.02
2023-05-15T17:49:46.368Z,50.00
2023-05-15T17:50:46.378Z,50.63
2023-05-15T17:51:46.406Z,50.84
2023-05-15T17:52:46.450Z,50.35
2023-05-15T17:53:46.430Z,52.92
2023-05-15T17:54:46.446Z,51.59
2023-05-15T17:55:46.726Z,52.12
2023-05-15T17:56:46.529Z,50.19
2023-05-15T17:57:47.323Z,51.61
2023-05-15T17:58:46.599Z,51.83
2023-05-15T17:59:46.644Z,51.87
2023-05-15T18:00:46.648Z,50.00
2023-05-15T18:01:46.739Z,54.22
2023-05-15T18:02:46.759Z,54.12
2023-05-15T18:03:46.812Z,53.33
2023-05-15T18:04:46.803Z,53.78
2023-05-15T18:05:46.869Z,53.15
2023-05-15T18:06:47.790Z,52.71
2023-05-15T18:07:46.962Z,53.06
2023-05-15T18:08:47.011Z,52.39
2023-05-15T18:09:47.005Z,54.28
2023-05-15T18:10:47.067Z,52.54
2023-05-15T18:11:47.136Z,53.64
2023-05-15T18:12:47.135Z,53.46
2023-05-15T18:13:47.211Z,52.27
2023-05-15T18:14:47.244Z,54.93
2023-05-15T18:15:47.323Z,53.48
2023-05-15T18:16:47.324Z,50.00
2023-05-15T18:17:47.441Z,51.93
2023-05-15T18:18:47.419Z,51.91
2023-05-15T18:19:47.423Z,51.86
2023-05-15T18:20:47.458Z,50.43
2023-05-15T18:21:47.477Z,52.24
2023-05-15T18:22:47.548Z,55.54
2023-05-15T18:23:47.590Z,54.88
2023-05-15T18:24:47.617Z,54.16
2023-05-15T18:25:47.677Z,53.58
2023-05-15T18:26:47.732Z,56.45
2023-05-15T18:27:47.827Z,56.25
2023-05-15T18:28:47.854Z,58.07
2023-05-15T18:29:47.945Z,59.32
2023-05-15T18:30:47.979Z,62.37
2023-05-15T18:31:48.099Z,64.65
2023-05-15T18:32:48.158Z,66.13
2023-05-15T18:33:48.136Z,65.51
2023-05-15T18:34:48.201Z,66.84
2023-05-15T18:35:48.322Z,70.66
2023-05-15T18:36:48.364Z,73.09
2023-05-15T18:37:48.433Z,71.91
2023-05-15T18:38:48.471Z,76.39
2023-05-15T18:39:48.550Z,78.27
2023-05-15T18:40:48.598Z,78.54
2023-05-15T18:41:48.682Z,81.46
2023-05-15T18:42:48.713Z,80.90
2023-05-15T18:43:48.783Z,80.75
2023-05-15T18:44:48.849Z,83.99
2023-05-15T18:45:48.921Z,85.05
2023-05-15T18:46:49.040Z,87.29
2023-05-15T18:47:49.156Z,86.03
2023-05-15T18:48:49.078Z,89.02
2023-05-15T18:49:49.176Z,89.64
2023-05-15T18:50:49.233Z,90.99
2023-05-15T18:51:49.272Z,92.40
2023-05-15T18:52:49.359Z,93.51
2023-05-15T18:53:49.424Z,91.71
2023-05-15T18:54:49.459Z,93.29
2023-05-15T18:55:49.527Z,95.52
2023-05-15T18:56:49.567Z,93.26
2023-05-15T18:57:49.623Z,96.19
2023-05-15T18:58:49.704Z,97.11
2023-05-15T18:59:49.747Z,95.50
2023-05-15T19:00:49.853Z,97.45
2023-05-15T19:01:49.924Z,97.87
2023-05-15T19:02:50.011Z,96.03
2023-05-15T19:03:49.969Z,96.17
2023-05-15T19:04:50.014Z,95.56
2023-05-15T19:05:50.110Z,96.34
2023-05-15T19:06:50.160Z,96.41
2023-05-15T19:07:50.185Z,97.20
2023-05-15T19:08:50.244Z,98.91
2023-05-15T19:09:50.326Z,99.59
2023-05-15T19:10:50.364Z,100.12
2023-05-15T19:11:50.422Z,101.93
2023-05-15T19:12:50.511Z,98.66
2023-05-15T19:13:50.539Z,99.80
2023-05-15T19:14:50.627Z,101.82
2023-05-15T19:15:50.665Z,101.89
2023-05-15T19:16:50.756Z,103.96
2023-05-15T19:17:50.819Z,102.21
2023-05-15T19:18:50.954Z,104.66
2023-05-15T19:19:50.907Z,105.39
2023-05-15T19:20:50.967Z,105.19
2023-05-15T19:21:50.988Z,105.73
2023-05-15T19:22:51.014Z,104.65
2023-05-15T19:23:51.076Z,106.89
2023-05-15T19:24:51.138Z,105.63
2023-05-15T19:25:51.178Z,108.07
2023-05-15T19:26:51.249Z,107.25
2023-05-15T19:27:51.339Z,106.43
2023-05-15T19:28:51.396Z,107.55
2023-05-15T19:29:51.439Z,107.63
2023-05-15T19:30:51.481Z,109.64
2023-05-15T19:31:51.590Z,108.93
2023-05-15T19:32:51.675Z,109.66
2023-05-15T19:33:51.697Z,109.48
2023-05-15T19:34:51.718Z,111.10
2023-05-15T19:35:51.832Z,110.07
2023-05-15T19:36:51.814Z,112.29
2023-05-15T19:37:51.883Z,112.99
2023-05-15T19:38:51.891Z,113.03
2023-05-15T19:39:51.898Z,115.64
2023-05-15T19:40:51.925Z,114.26
2023-05-15T19:41:51.954Z,114.84
2023-05-15T19:42:51.960Z,112.94
2023-05-15T19:43:51.976Z,113.95
2023-05-15T19:44:51.962Z,114.10
2023-05-15T19:45:52.053Z,115.77
2023-05-15T19:46:53.817Z,114.97
2023-05-15T19:47:52.090Z,112.24
2023-05-15T19:48:52.165Z,115.89
2023-05-15T19:49:52.231Z,115.72
2023-05-15T19:50:52.285Z,113.13
2023-05-15T19:51:52.350Z,113.80
2023-05-15T19:52:52.384Z,111.61
2023-05-15T19:53:52.461Z,112.67
2023-05-15T19:54:52.530Z,113.13
2023-05-15T19:55:52.634Z,114.47
2023-05-15T19:56:52.647Z,111.17
2023-05-15T19:57:52.726Z,111.66
2023-05-15T19:58:52.805Z,109.92
2023-05-15T19:59:52.892Z,111.96
2023-05-15T20:00:52.920Z,109.90
2023-05-15T20:01:53.058Z,113.18
2023-05-15T20:02:53.109Z,112.39
2023-05-15T20:03:53.199Z,112.47
2023-05-15T20:04:53.181Z,113.10
2023-05-15T20:05:53.213Z,111.11
2023-05-15T20:06:53.295Z,111.77
2023-05-15T20:07:53.297Z,109.21
2023-05-15T20:08:53.362Z,110.56
2023-05-15T20:09:53.364Z,109.76
2023-05-15T20:10:53.365Z,109.37
2023-05-15T20:11:53.391Z,109.91
2023-05-15T20:12:53.414Z,108.49
2023-05-15T20:13:53.402Z,106.80
2023-05-15T20:14:53.384Z,109.35
2023-05-15T20:15:53.400Z,107.51
2023-05-15T20:16:53.400Z,106.63
2023-05-15T20:17:53.424Z,104.17
2023-05-15T20:18:53.460Z,106.83
2023-05-15T20:19:53.388Z,102.88
2023-05-15T20:20:53.387Z,102.23
2023-05-15T20:21:53.383Z,102.86
2023-05-15T20:22:53.406Z,103.05
2023-05-15T20:23:53.421Z,101.99
2023-05-15T20:24:53.424Z,99.79
2023-05-15T20:25:53.473Z,97.08
2023-05-15T20:26:53.445Z,98.49
2023-05-15T20:27:53.488Z,97.57
2023-05-15T20:28:53.527Z,96.86
2023-05-15T20:29:53.563Z,96.59
2023-05-15T20:30:53.544Z,97.71
2023-05-15T20:31:53.703Z,98.81
2023-05-15T20:32:53.732Z,96.99
2023-05-15T20:33:53.676Z,99.70
2023-05-15T20:34:53.731Z,98.43
2023-05-15T20:35:53.707Z,99.61
2023-05-15T20:36:53.656Z,94.12
2023-05-15T20:37:53.668Z,94.07
2023-05-15T20:38:53.662Z,95.93
2023-05-15T20:39:53.664Z,94.83
2023-05-15T20:40:53.694Z,95.60
2023-05-15T20:41:53.665Z,93.75
2023-05-15T20:42:53.674Z,94.69
2023-05-15T20:43:53.695Z,95.44
2023-05-15T20:44:53.692Z,93.65
2023-05-15T20:45:53.704Z,92.50
2023-05-15T20:46:53.701Z,94.96
2023-05-15T20:47:53.710Z,93.26
2023-05-15T20:48:53.687Z,96.67
2023-05-15T20:49:53.692Z,95.24
2023-05-15T20:50:53.695Z,96.01
2023-05-15T20:51:53.677Z,93.48
2023-05-15T20:52:53.756Z,91.66
2023-05-15T20:53:53.696Z,91.36
2023-05-15T20:54:53.705Z,89.38
2023-05-15T20:55:53.713Z,91.11
2023-05-15T20:56:53.746Z,91.93
2023-05-15T20:57:53.749Z,91.31
2023-05-15T20:58:53.730Z,88.39
2023-05-15T20:59:53.764Z,89.73
2023-05-15T21:00:53.779Z,90.61
2023-05-15T21:01:53.752Z,88.79
2023-05-15T21:02:53.884Z,87.78
2023-05-15T21:03:53.905Z,90.00
2023-05-15T21:04:53.793Z,90.82
2023-05-15T21:05:56.023Z,92.18
2023-05-15T21:06:53.784Z,94.36
2023-05-15T21:07:53.790Z,91.18
2023-05-15T21:08:53.772Z,91.30
2023-05-15T21:09:53.734Z,94.74
2023-05-15T21:10:53.761Z,94.89
2023-05-15T21:11:53.730Z,95.68
2023-05-15T21:12:53.715Z,97.61
2023-05-15T21:13:53.721Z,98.40
2023-05-15T21:14:53.726Z,97.00
2023-05-15T21:15:53.710Z,96.94
2023-05-15T21:16:53.734Z,97.61
2023-05-15T21:17:53.761Z,96.13
2023-05-15T21:18:53.694Z,99.43
2023-05-15T21:19:53.698Z,99.27
2023-05-15T21:20:53.660Z,98.60
2023-05-15T21:21:53.656Z,101.24
2023-05-15T21:22:53.679Z,101.95
2023-05-15T21:23:53.669Z,101.66
2023-05-15T21:24:53.657Z,99.11
2023-05-15T21:25:53.665Z,100.67
2023-05-15T21:26:53.634Z,100.60
2023-05-15T21:27:53.645Z,101.31
2023-05-15T21:28:53.614Z,101.16
2023-05-15T21:29:53.606Z,100.42
2023-05-15T21:30:53.656Z,100.10
2023-05-15T21:31:53.596Z,97.89
2023-05-15T21:32:53.637Z,96.23
2023-05-15T21:33:53.585Z,97.47
2023-05-15T21:34:53.583Z,98.03
2023-05-15T21:35:53.583Z,96.97
2023-05-15T21:36:53.590Z,97.29
2023-05-15T21:37:53.548Z,95.73
2023-05-15T21:38:53.576Z,95.35
2023-05-15T21:39:53.561Z,97.17
2023-05-15T21:40:53.555Z,97.10
2023-05-15T21:41:53.554Z,96.87
2023-05-15T21:42:53.547Z,99.40
2023-05-15T21:43:53.505Z,97.59
2023-05-15T21:44:53.539Z,96.55
2023-05-15T21:45:53.490Z,96.86
2023-05-15T21:46:53.535Z,98.07
2023-05-15T21:47:53.519Z,97.87
2023-05-15T21:48:53.508Z,99.66
2023-05-15T21:49:54.260Z,99.35
2023-05-15T21:50:53.454Z,100.07
2023-05-15T21:51:53.463Z,99.94
2023-05-15T21:52:53.445Z,101.24
2023-05-15T21:53:53.463Z,102.26
2023-05-15T21:54:53.457Z,102.86
2023-05-15T21:55:53.455Z,102.58
2023-05-15T21:56:53.467Z,102.75
2023-05-15T21:57:53.459Z,105.55
2023-05-15T21:58:53.410Z,104.19
2023-05-15T21:59:53.431Z,105.30
2023-05-15T22:00:53.445Z,107.18
2023-05-15T22:01:53.454Z,110.13
2023-05-15T22:02:53.457Z,109.74
2023-05-15T22:03:53.386Z,109.66
2023-05-15T22:04:53.383Z,108.36
2023-05-15T22:05:53.376Z,111.00
2023-05-15T22:06:53.357Z,109.38
2023-05-15T22:07:53.454Z,109.91
2023-05-15T22:08:53.336Z,110.39
2023-05-15T22:09:53.344Z,109.13
2023-05-15T22:10:53.382Z,112.90
2023-05-15T22:11:53.327Z,113.82
2023-05-15T22:12:53.349Z,112.35
2023-05-15T22:13:53.314Z,114.68
2023-05-15T22:14:58.808Z,113.09
2023-05-15T22:15:54.394Z,113.20
2023-05-15T22:16:53.535Z,113.11
2023-05-15T22:17:53.339Z,110.03
2023-05-15T22:18:53.283Z,110.77
2023-05-15T22:19:53.273Z,108.73
2023-05-15T22:20:53.394Z,106.63
2023-05-15T22:21:53.287Z,107.01
2023-05-15T22:22:53.276Z,106.91
2023-05-15T22:23:53.260Z,104.58
2023-05-15T22:24:53.245Z,104.69
2023-05-15T22:25:53.267Z,105.52
2023-05-15T22:26:53.233Z,104.13
2023-05-15T22:27:53.235Z,101.48
2023-05-15T22:28:53.231Z,103.79
2023-05-15T22:29:53.229Z,103.57
2023-05-15T22:30:53.245Z,100.75
2023-05-15T22:31:53.282Z,101.35
2023-05-15T22:32:53.231Z,100.16
2023-05-15T22:33:53.199Z,100.17
2023-05-15T22:34:53.252Z,100.10
2023-05-15T22:35:53.294Z,101.29
2023-05-15T22:37:53.334Z,99.10
2023-05-15T22:38:53.412Z,97.56
2023-05-15T22:39:53.449Z,99.03
2023-05-15T22:40:53.454Z,99.89
2023-05-15T22:41:53.471Z,98.49
2023-05-15T22:42:53.522Z,96.96
2023-05-15T22:43:53.582Z,98.33
2023-05-15T22:44:53.599Z,98.07
2023-05-15T22:45:53.689Z,96.39
2023-05-15T22:46:53.691Z,98.11
2023-05-15T22:47:53.744Z,98.49
2023-05-15T22:48:53.750Z,101.37
2023-05-15T22:49:53.801Z,99.18
2023-05-15T22:50:53.829Z,102.19
2023-05-15T22:51:53.848Z,101.47
2023-05-15T22:52:53.893Z,101.24
2023-05-15T22:53:53.914Z,102.55
2023-05-15T22:54:53.960Z,104.92
2023-05-15T22:55:53.962Z,104.06
2023-05-15T22:56:54.011Z,104.72
2023-05-15T22:57:54.056Z,105.67
2023-05-15T22:58:54.059Z,105.18
2023-05-15T22:59:54.096Z,105.28
2023-05-15T23:00:54.173Z,102.57
2023-05-15T23:01:54.201Z,106.27
2023-05-15T23:02:54.214Z,107.51
2023-05-15T23:03:54.217Z,102.08
2023-05-15T23:04:54.237Z,105.04
2023-05-15T23:05:54.280Z,104.49
2023-05-15T23:06:54.277Z,102.32
2023-05-15T23:07:54.351Z,102.33
2023-05-15T23:08:54.361Z,104.60
2023-05-15T23:09:54.395Z,102.49
2023-05-15T23:10:54.428Z,102.67
2023-05-15T23:11:54.450Z,101.43
2023-05-15T23:12:54.485Z,99.92
2023-05-15T23:13:54.525Z,102.75
2023-05-15T23:14:54.591Z,104.84
2023-05-15T23:15:54.647Z,101.93
2023-05-15T23:16:54.642Z,103.16
2023-05-15T23:17:54.711Z,101.67
2023-05-15T23:18:54.771Z,103.13
2023-05-15T23:19:54.791Z,103.52
2023-05-15T23:20:54.806Z,102.93
2023-05-15T23:21:54.853Z,104.60
2023-05-15T23:22:54.910Z,104.87
2023-05-15T23:23:54.946Z,104.71
2023-05-15T23:24:54.977Z,104.16
2023-05-15T23:25:55.021Z,106.35
2023-05-15T23:26:55.058Z,106.77
2023-05-15T23:27:55.150Z,106.11
2023-05-15T23:28:55.150Z,107.73
2023-05-15T23:29:55.213Z,104.66
2023-05-15T23:30:55.258Z,109.11
2023-05-15T23:31:55.382Z,107.00
2023-05-15T23:32:55.399Z,106.37
2023-05-15T23:33:55.344Z,107.36
2023-05-15T23:34:55.408Z,106.20
2023-05-15T23:35:55.459Z,107.64
2023-05-15T23:36:55.484Z,108.79
2023-05-15T23:37:55.545Z,109.48
2023-05-15T23:38:55.599Z,109.26
2023-05-15T23:39:55.630Z,107.66
2023-05-15T23:40:55.661Z,107.41
2023-05-15T23:41:55.715Z,109.88
2023-05-15T23:42:55.765Z,108.95
2023-05-15T23:43:55.780Z,109.79
2023-05-15T23:44:55.835Z,108.83
2023-05-15T23:45:55.882Z,109.11
2023-05-15T23:46:55.947Z,107.59
2023-05-15T23:47:56.016Z,108.68
2023-05-15T23:48:56.035Z,108.96
2023-05-15T23:49:56.039Z,108.07
2023-05-15T23:50:56.110Z,107.72
2023-05-15T23:51:56.140Z,107.47
2023-05-15T23:52:56.193Z,106.15
2023-05-15T23:53:56.254Z,105.42
2023-05-15T23:54:56.290Z,109.16
2023-05-15T23:55:56.350Z,104.76
2023-05-15T23:56:56.350Z,104.82
2023-05-15T23:57:56.379Z,102.24
2023-05-15T23:58:56.433Z,99.97
2023-05-15T23:59:56.454Z,99.41
